createdAt,value
2022-10-03T00:01:34.474Z,60.45
2022-10-03T00:04:16.619Z,60.73
2022-10-03T00:07:11.524Z,60.91
2022-10-03T00:10:06.996Z,60.84
2022-10-03T00:13:01.791Z,61.10
2022-10-03T00:16:01.664Z,61.56
2022-10-03T00:19:01.396Z,61.86
2022-10-03T00:21:34.676Z,61.84
2022-10-03T00:24:14.539Z,62.15
2022-10-03T00:26:50.763Z,62.30
2022-10-03T00:29:37.125Z,62.74
2022-10-03T00:32:22.922Z,62.62
2022-10-03T00:35:21.627Z,62.35
2022-10-03T00:38:20.297Z,62.24
2022-10-03T00:41:33.259Z,62.58
2022-10-03T00:44:48.879Z,62.31
2022-10-03T00:47:54.952Z,62.70
2022-10-03T00:50:46.686Z,62.81
2022-10-03T00:53:37.955Z,62.58
2022-10-03T00:56:46.135Z,62.34
2022-10-03T01:00:02.031Z,61.93
2022-10-03T01:02:47.119Z,61.82
2022-10-03T01:05:42.035Z,61.67
2022-10-03T01:08:43.279Z,61.69
2022-10-03T01:11:43.187Z,62.20
2022-10-03T01:14:45.968Z,61.92
2022-10-03T01:17:59.465Z,61.35
2022-10-03T01:20:41.858Z,61.34
2022-10-03T01:23:42.637Z,61.22
2022-10-03T01:26:32.971Z,61.71
2022-10-03T01:29:30.786Z,61.28
2022-10-03T01:32:13.761Z,60.89
2022-10-03T01:35:03.161Z,61.08
2022-10-03T01:37:54.357Z,61.30
2022-10-03T01:40:26.314Z,61.21
2022-10-03T01:43:02.962Z,61.36
2022-10-03T01:46:17.375Z,61.69
2022-10-03T01:48:53.623Z,61.46
2022-10-03T01:51:52.613Z,61.15
2022-10-03T01:54:26.268Z,61.01
2022-10-03T01:57:26.021Z,60.92
2022-10-03T02:00:01.289Z,61.33
2022-10-03T02:02:55.422Z,61.47
2022-10-03T02:06:00.031Z,62.01
2022-10-03T02:08:40.704Z,63.03
2022-10-03T02:11:11.686Z,63.46
2022-10-03T02:13:41.769Z,63.55
2022-10-03T02:16:25.594Z,63.68
2022-10-03T02:19:03.384Z,63.62
2022-10-03T02:21:32.734Z,63.69
2022-10-03T02:24:19.874Z,63.87
2022-10-03T02:27:25.731Z,63.61
2022-10-03T02:30:11.718Z,64.10
2022-10-03T02:33:06.374Z,64.61
2022-10-03T02:36:04.124Z,64.33
2022-10-03T02:38:49.743Z,63.97
2022-10-03T02:41:32.784Z,63.76
2022-10-03T02:44:40.406Z,63.64
2022-10-03T02:47:42.243Z,63.96
2022-10-03T02:50:39.582Z,63.61
2022-10-03T02:53:52.604Z,63.22
2022-10-03T02:57:06.682Z,62.57
2022-10-03T03:00:05.899Z,63.16
2022-10-03T03:03:10.612Z,63.59
2022-10-03T03:06:31.071Z,63.71
2022-10-03T03:09:50.768Z,63.04
2022-10-03T03:12:40.365Z,63.63
2022-10-03T03:15:26.264Z,63.48
2022-10-03T03:17:59.371Z,62.93
2022-10-03T03:21:11.751Z,62.87
2022-10-03T03:24:00.207Z,62.14
2022-10-03T03:26:36.033Z,61.77
2022-10-03T03:29:48.928Z,62.00
2022-10-03T03:32:46.087Z,62.76
2022-10-03T03:36:12.061Z,63.51
2022-10-03T03:39:24.922Z,63.33
2022-10-03T03:42:03.925Z,63.18
2022-10-03T03:45:09.727Z,62.89
2022-10-03T03:47:57.674Z,62.76
2022-10-03T03:50:57.219Z,61.86
2022-10-03T03:53:58.024Z,62.17
2022-10-03T03:56:50.870Z,62.00
2022-10-03T03:59:36.032Z,61.44
2022-10-03T04:03:01.443Z,62.29
2022-10-03T04:05:50.345Z,62.21
2022-10-03T04:08:47.414Z,62.54
2022-10-03T04:11:56.262Z,61.88
2022-10-03T04:15:00.051Z,62.06
2022-10-03T04:18:03.766Z,61.70
2022-10-03T04:20:50.829Z,61.95
2022-10-03T04:23:44.276Z,62.38
2022-10-03T04:26:30.122Z,62.14
2022-10-03T04:29:35.421Z,61.65
2022-10-03T04:32:34.825Z,62.18
2022-10-03T04:35:39.556Z,61.97
2022-10-03T04:38:20.735Z,62.35
2022-10-03T04:40:47.664Z,62.45
2022-10-03T04:43:40.453Z,62.32
2022-10-03T04:46:47.638Z,62.82
2022-10-03T04:49:39.372Z,62.91
2022-10-03T04:52:26.215Z,63.27
2022-10-03T04:55:06.621Z,62.96
2022-10-03T04:58:04.087Z,62.41
2022-10-03T05:00:48.198Z,62.80
2022-10-03T05:03:43.803Z,63.80
2022-10-03T05:06:23.738Z,64.28
2022-10-03T05:09:01.802Z,63.81
2022-10-03T05:11:57.174Z,63.63
2022-10-03T05:15:10.797Z,63.99
2022-10-03T05:18:01.531Z,64.09
2022-10-03T05:20:48.708Z,64.43
2022-10-03T05:23:48.423Z,64.29
2022-10-03T05:26:47.158Z,64.47
2022-10-03T05:29:44.017Z,64.39
2022-10-03T05:32:37.038Z,64.06
2022-10-03T05:35:14.119Z,64.08
2022-10-03T05:38:34.183Z,64.04
2022-10-03T05:41:04.715Z,63.82
2022-10-03T05:43:46.649Z,63.47
2022-10-03T05:46:38.977Z,63.16
2022-10-03T05:49:48.613Z,62.99
2022-10-03T05:52:27.802Z,63.15
2022-10-03T05:55:25.872Z,63.29
2022-10-03T05:58:15.129Z,63.35
2022-10-03T06:00:48.608Z,62.97
2022-10-03T06:04:05.768Z,62.70
2022-10-03T06:07:06.081Z,62.87
2022-10-03T06:10:02.994Z,62.77
2022-10-03T06:12:57.019Z,62.47
2022-10-03T06:15:39.838Z,62.22
2022-10-03T06:18:48.473Z,62.33
2022-10-03T06:21:52.369Z,61.75
2022-10-03T06:24:40.934Z,61.54
2022-10-03T06:28:03.979Z,60.93
2022-10-03T06:30:52.187Z,61.84
2022-10-03T06:33:56.282Z,61.66
2022-10-03T06:37:15.211Z,60.78
2022-10-03T06:40:35.221Z,61.49
2022-10-03T06:43:33.179Z,61.31
2022-10-03T06:46:38.213Z,61.01
2022-10-03T06:49:45.764Z,61.01
2022-10-03T06:54:55.071Z,60.91
2022-10-03T06:58:34.586Z,60.89
2022-10-03T07:01:13.590Z,60.67
2022-10-03T07:04:24.193Z,60.53
2022-10-03T07:07:31.208Z,60.14
2022-10-03T07:10:25.013Z,59.05
2022-10-03T07:13:31.611Z,58.73
2022-10-03T07:16:41.445Z,59.89
2022-10-03T07:19:34.771Z,59.89
2022-10-03T07:22:04.762Z,60.27
2022-10-03T07:25:12.142Z,60.37
2022-10-03T07:28:21.505Z,60.81
2022-10-03T07:30:54.425Z,61.88
2022-10-03T07:33:59.351Z,61.42
2022-10-03T07:37:48.925Z,60.08
2022-10-03T07:41:19.337Z,60.67
2022-10-03T07:43:58.275Z,60.03
2022-10-03T07:46:46.686Z,59.58
2022-10-03T07:49:25.714Z,58.83
2022-10-03T07:52:08.347Z,59.16
2022-10-03T07:54:38.137Z,58.74
2022-10-03T07:57:37.985Z,58.40
2022-10-03T08:00:41.045Z,58.63
2022-10-03T08:03:26.687Z,58.59
2022-10-03T08:06:38.787Z,57.99
2022-10-03T08:09:50.397Z,57.32
2022-10-03T08:12:48.787Z,57.69
2022-10-03T08:15:53.286Z,57.95
2022-10-03T08:18:26.338Z,58.01
2022-10-03T08:21:01.043Z,57.72
2022-10-03T08:24:00.500Z,56.85
2022-10-03T08:26:52.706Z,56.27
2022-10-03T08:30:06.215Z,56.17
2022-10-03T08:33:31.477Z,56.29
2022-10-03T08:36:32.430Z,55.75
2022-10-03T08:39:27.485Z,54.39
2022-10-03T08:42:23.713Z,54.57
2022-10-03T08:45:27.190Z,55.15
2022-10-03T08:48:43.828Z,53.98
2022-10-03T08:51:56.358Z,53.61
2022-10-03T08:55:15.739Z,53.48
2022-10-03T08:58:30.106Z,53.39
2022-10-03T09:01:29.975Z,53.32
2022-10-03T09:04:27.319Z,52.97
2022-10-03T09:07:43.557Z,52.79
2022-10-03T09:10:33.075Z,51.97
2022-10-03T09:13:28.053Z,52.80
2022-10-03T09:16:06.600Z,52.98
2022-10-03T09:18:52.772Z,52.31
2022-10-03T09:22:09.685Z,51.86
2022-10-03T09:25:07.458Z,52.31
2022-10-03T09:27:43.837Z,52.08
2022-10-03T09:30:30.276Z,51.30
2022-10-03T09:33:45.579Z,51.03
2022-10-03T09:37:13.056Z,51.19
2022-10-03T09:40:17.492Z,51.60
2022-10-03T09:43:39.053Z,51.13
2022-10-03T09:47:12.725Z,51.15
2022-10-03T09:50:00.996Z,50.37
2022-10-03T09:53:30.331Z,50.10
2022-10-03T09:56:35.658Z,48.91
2022-10-03T09:59:37.816Z,48.69
2022-10-03T10:02:51.949Z,47.95
2022-10-03T10:05:40.698Z,48.29
2022-10-03T10:08:38.063Z,48.01
2022-10-03T10:12:01.911Z,47.50
2022-10-03T10:15:06.599Z,47.06
2022-10-03T10:18:17.789Z,46.87
2022-10-03T10:21:22.218Z,47.00
2022-10-03T10:25:05.292Z,46.82
2022-10-03T10:28:12.263Z,46.54
2022-10-03T10:31:19.077Z,46.60
2022-10-03T10:34:30.598Z,46.64
2022-10-03T10:37:19.272Z,46.27
2022-10-03T10:40:39.699Z,46.84
2022-10-03T10:43:49.550Z,47.39
2022-10-03T10:46:41.554Z,47.84
2022-10-03T10:49:49.123Z,47.97
2022-10-03T10:52:59.127Z,46.88
2022-10-03T10:55:57.020Z,45.80
2022-10-03T10:58:45.671Z,44.91
2022-10-03T11:01:55.918Z,45.18
2022-10-03T11:05:36.703Z,45.45
2022-10-03T11:08:31.460Z,45.28
2022-10-03T11:11:07.630Z,45.18
2022-10-03T11:13:38.636Z,45.28
2022-10-03T11:16:46.151Z,46.08
2022-10-03T11:19:47.074Z,45.93
2022-10-03T11:22:29.444Z,46.38
2022-10-03T11:25:30.209Z,45.92
2022-10-03T11:28:38.158Z,45.21
2022-10-03T11:32:05.652Z,44.71
2022-10-03T11:35:01.951Z,43.43
2022-10-03T11:38:04.606Z,44.23
2022-10-03T11:41:19.216Z,44.76
2022-10-03T11:44:07.381Z,46.57
2022-10-03T11:47:16.115Z,45.79
2022-10-03T11:49:55.155Z,45.80
2022-10-03T11:52:24.940Z,46.43
2022-10-03T11:55:28.322Z,45.74
2022-10-03T11:58:34.365Z,45.13
2022-10-03T12:01:32.232Z,45.11
2022-10-03T12:04:25.882Z,42.48
2022-10-03T12:07:39.974Z,42.23
2022-10-03T12:10:40.959Z,42.99
2022-10-03T12:13:19.697Z,43.67
2022-10-03T12:15:56.955Z,44.34
2022-10-03T12:18:45.135Z,43.28
2022-10-03T12:21:12.124Z,43.02
2022-10-03T12:24:19.503Z,42.34
2022-10-03T12:27:04.415Z,42.27
2022-10-03T12:29:36.702Z,42.41
2022-10-03T12:32:20.903Z,42.47
2022-10-03T12:34:58.817Z,39.92
2022-10-03T12:37:51.359Z,41.09
2022-10-03T12:40:30.244Z,41.66
2022-10-03T12:43:09.414Z,40.65
2022-10-03T12:45:48.726Z,41.08
2022-10-03T12:48:48.532Z,42.95
2022-10-03T12:51:42.588Z,45.02
2022-10-03T12:54:31.947Z,46.48
2022-10-03T12:57:33.534Z,46.99
2022-10-03T13:00:20.919Z,46.90
2022-10-03T13:03:15.182Z,46.79
2022-10-03T13:06:17.813Z,47.95
2022-10-03T13:09:24.652Z,48.07
2022-10-03T13:12:01.017Z,47.90
2022-10-03T13:15:18.777Z,47.19
2022-10-03T13:18:03.679Z,46.11
2022-10-03T13:20:39.367Z,47.01
2022-10-03T13:23:30.784Z,46.46
2022-10-03T13:26:39.935Z,45.11
2022-10-03T13:29:25.558Z,45.66
2022-10-03T13:31:55.470Z,45.49
2022-10-03T13:34:29.741Z,44.95
2022-10-03T13:37:31.694Z,44.89
2022-10-03T13:40:09.239Z,45.54
2022-10-03T13:42:47.228Z,45.58
2022-10-03T13:45:19.551Z,46.02
2022-10-03T13:48:08.038Z,46.05
2022-10-03T13:50:43.438Z,46.39
2022-10-03T13:54:02.071Z,45.64
2022-10-03T13:57:02.037Z,45.27
2022-10-03T13:59:56.390Z,45.16
2022-10-03T14:02:43.790Z,46.02
2022-10-03T14:05:33.193Z,46.60
2022-10-03T14:08:46.931Z,46.59
2022-10-03T14:11:39.197Z,46.80
2022-10-03T14:14:33.624Z,47.15
2022-10-03T14:17:28.991Z,47.66
2022-10-03T14:20:20.758Z,48.08
2022-10-03T14:23:09.591Z,47.36
2022-10-03T14:25:52.899Z,47.82
2022-10-03T14:28:26.768Z,47.65
2022-10-03T14:31:18.612Z,47.28
2022-10-03T14:33:58.767Z,46.99
2022-10-03T14:36:52.376Z,46.99
2022-10-03T14:39:41.564Z,45.20
2022-10-03T14:42:55.001Z,44.49
2022-10-03T14:45:30.824Z,39.88
2022-10-03T14:48:08.257Z,35.47
2022-10-03T14:50:40.701Z,36.05
2022-10-03T14:53:27.257Z,36.94
2022-10-03T14:56:21.137Z,38.34
2022-10-03T14:58:52.878Z,40.59
2022-10-03T15:01:26.079Z,42.12
2022-10-03T15:04:01.194Z,43.45
2022-10-03T15:06:53.933Z,44.43
2022-10-03T15:09:48.955Z,45.36
2022-10-03T15:12:20.750Z,45.33
2022-10-03T15:15:06.579Z,45.87
2022-10-03T15:17:43.060Z,46.53
2022-10-03T15:20:12.437Z,46.81
2022-10-03T15:22:43.140Z,46.65
2022-10-03T15:25:23.766Z,47.06
2022-10-03T15:27:57.861Z,47.20
2022-10-03T15:30:32.537Z,47.38
2022-10-03T15:33:15.599Z,47.37
2022-10-03T15:35:47.061Z,46.34
2022-10-03T15:38:27.402Z,46.10
2022-10-03T15:41:00.509Z,46.32
2022-10-03T15:44:05.067Z,46.93
2022-10-03T15:46:45.206Z,47.50
2022-10-03T15:49:30.575Z,47.46
2022-10-03T15:52:09.815Z,48.27
2022-10-03T15:54:39.060Z,48.40
2022-10-03T15:57:08.396Z,47.95
2022-10-03T15:59:37.205Z,48.59
2022-10-03T16:02:19.150Z,48.55
2022-10-03T16:04:47.930Z,49.17
2022-10-03T16:07:47.824Z,48.97
2022-10-03T16:10:24.341Z,49.05
2022-10-03T16:13:28.476Z,49.04
2022-10-03T16:16:09.723Z,49.47
2022-10-03T16:19:03.059Z,50.05
2022-10-03T16:21:46.905Z,50.13
2022-10-03T16:24:42.816Z,50.39
2022-10-03T16:27:22.934Z,50.24
2022-10-03T16:30:11.583Z,50.04
2022-10-03T16:32:51.029Z,50.34
2022-10-03T16:36:01.713Z,50.58
2022-10-03T16:38:43.619Z,51.14
2022-10-03T16:41:22.952Z,51.04
2022-10-03T16:44:01.572Z,51.00
2022-10-03T16:46:38.992Z,50.81
2022-10-03T16:49:45.088Z,50.94
2022-10-03T16:52:21.744Z,51.17
2022-10-03T16:54:57.939Z,51.45
2022-10-03T16:57:54.083Z,51.44
2022-10-03T17:00:27.169Z,51.53
2022-10-03T17:02:55.535Z,51.80
2022-10-03T17:05:23.595Z,51.76
2022-10-03T17:07:55.234Z,51.35
2022-10-03T17:10:38.113Z,51.39
2022-10-03T17:13:19.734Z,50.79
2022-10-03T17:15:52.754Z,50.68
2022-10-03T17:18:32.080Z,51.08
2022-10-03T17:21:16.185Z,51.10
2022-10-03T17:24:11.854Z,50.78
2022-10-03T17:26:43.530Z,51.08
2022-10-03T17:29:42.180Z,50.90
2022-10-03T17:32:29.833Z,50.52
2022-10-03T17:35:10.833Z,51.26
2022-10-03T17:38:19.567Z,51.28
2022-10-03T17:41:18.995Z,51.47
2022-10-03T17:44:33.859Z,51.96
2022-10-03T17:47:18.771Z,52.51
2022-10-03T17:50:15.607Z,52.87
2022-10-03T17:52:47.089Z,52.80
2022-10-03T17:55:25.990Z,52.57
2022-10-03T17:58:06.264Z,52.80
2022-10-03T18:00:56.917Z,53.22
2022-10-03T18:03:37.445Z,53.71
2022-10-03T18:06:38.558Z,53.52
2022-10-03T18:09:14.689Z,54.01
2022-10-03T18:11:45.873Z,54.26
2022-10-03T18:14:43.694Z,54.67
2022-10-03T18:17:36.032Z,54.98
2022-10-03T18:20:37.227Z,55.32
2022-10-03T18:23:12.111Z,55.20
2022-10-03T18:26:19.040Z,55.35
2022-10-03T18:29:18.034Z,57.12
2022-10-03T18:31:55.867Z,57.69
2022-10-03T18:34:48.494Z,58.48
2022-10-03T18:37:27.529Z,58.76
2022-10-03T18:39:57.414Z,59.20
2022-10-03T18:42:29.724Z,59.79
2022-10-03T18:44:59.667Z,59.77
2022-10-03T18:47:40.816Z,59.23
2022-10-03T18:50:30.055Z,59.64
2022-10-03T18:53:19.618Z,60.02
2022-10-03T18:55:58.142Z,60.05
2022-10-03T18:58:32.832Z,59.49
2022-10-03T19:01:05.263Z,58.33
2022-10-03T19:03:41.520Z,58.47
2022-10-03T19:06:35.677Z,58.10
2022-10-03T19:09:16.134Z,57.93
2022-10-03T19:11:54.878Z,57.82
2022-10-03T19:15:02.516Z,58.22
2022-10-03T19:18:16.814Z,58.23
2022-10-03T19:20:46.239Z,57.63
2022-10-03T19:23:35.504Z,57.83
2022-10-03T19:26:11.209Z,58.64
2022-10-03T19:28:48.159Z,58.28
2022-10-03T19:31:19.659Z,58.57
2022-10-03T19:33:58.922Z,58.62
2022-10-03T19:36:32.341Z,59.06
2022-10-03T19:39:01.106Z,59.04
2022-10-03T19:41:32.120Z,59.51
2022-10-03T19:44:28.012Z,59.56
2022-10-03T19:47:17.864Z,59.32
2022-10-03T19:50:35.320Z,60.22
2022-10-03T19:53:15.337Z,60.45
2022-10-03T19:55:43.480Z,60.08
2022-10-03T19:58:23.995Z,60.18
2022-10-03T20:00:59.513Z,60.27
2022-10-03T20:03:40.486Z,59.98
2022-10-03T20:06:24.473Z,60.63
2022-10-03T20:09:21.676Z,60.52
2022-10-03T20:12:10.280Z,60.53
2022-10-03T20:14:41.606Z,60.15
2022-10-03T20:17:21.502Z,60.25
2022-10-03T20:20:17.559Z,59.70
2022-10-03T20:22:44.881Z,60.16
2022-10-03T20:25:43.484Z,60.26
2022-10-03T20:28:28.667Z,59.57
2022-10-03T20:30:56.039Z,59.06
2022-10-03T20:33:30.785Z,59.61
2022-10-03T20:36:20.094Z,60.14
2022-10-03T20:39:18.296Z,60.04
2022-10-03T20:41:59.627Z,60.06
2022-10-03T20:44:49.866Z,59.78
2022-10-03T20:47:43.174Z,60.41
2022-10-03T20:50:30.480Z,59.94
2022-10-03T20:53:23.496Z,59.60
2022-10-03T20:56:15.167Z,59.91
2022-10-03T20:58:56.596Z,59.40
2022-10-03T21:01:28.213Z,59.02
2022-10-03T21:04:19.058Z,59.21
2022-10-03T21:06:54.395Z,59.40
2022-10-03T21:09:35.554Z,59.55
2022-10-03T21:12:05.648Z,59.22
2022-10-03T21:14:33.858Z,59.73
2022-10-03T21:17:02.498Z,59.87
2022-10-03T21:19:32.679Z,59.60
2022-10-03T21:22:04.504Z,59.79
2022-10-03T21:25:23.614Z,59.58
2022-10-03T21:27:55.045Z,59.33
2022-10-03T21:30:58.918Z,59.54
2022-10-03T21:33:48.302Z,59.33
2022-10-03T21:37:00.339Z,58.49
2022-10-03T21:40:30.339Z,58.87
2022-10-03T21:43:18.923Z,59.71
2022-10-03T21:46:13.543Z,59.40
2022-10-03T21:49:03.047Z,59.35
2022-10-03T21:51:58.420Z,59.45
2022-10-03T21:54:46.602Z,59.45
2022-10-03T21:57:38.338Z,59.49
2022-10-03T22:00:19.815Z,59.33
2022-10-03T22:03:09.411Z,59.47
2022-10-03T22:05:57.349Z,59.02
2022-10-03T22:08:30.313Z,58.60
2022-10-03T22:11:00.278Z,59.36
2022-10-03T22:13:34.435Z,59.54
2022-10-03T22:16:16.909Z,59.40
2022-10-03T22:19:13.321Z,59.11
2022-10-03T22:22:17.325Z,59.24
2022-10-03T22:25:21.246Z,59.51
2022-10-03T22:28:25.416Z,59.41
2022-10-03T22:31:14.122Z,58.99
2022-10-03T22:33:59.702Z,58.69
2022-10-03T22:36:28.107Z,58.29
2022-10-03T22:38:55.173Z,57.96
2022-10-03T22:41:30.371Z,58.04
2022-10-03T22:43:59.639Z,58.84
2022-10-03T22:46:31.678Z,59.11
2022-10-03T22:49:18.781Z,58.75
2022-10-03T22:51:48.142Z,58.19
2022-10-03T22:54:18.227Z,58.07
2022-10-03T22:57:04.808Z,58.19
2022-10-03T22:59:38.933Z,58.23
2022-10-03T23:02:09.447Z,58.75
2022-10-03T23:04:53.154Z,59.23
2022-10-03T23:08:00.131Z,58.41
2022-10-03T23:10:35.394Z,58.16
2022-10-03T23:13:35.426Z,57.79
2022-10-03T23:16:33.697Z,57.83
2022-10-03T23:19:25.707Z,58.14
2022-10-03T23:21:56.671Z,58.07
2022-10-03T23:24:45.602Z,57.68
2022-10-03T23:27:24.770Z,57.95
2022-10-03T23:30:16.409Z,57.57
2022-10-03T23:32:49.133Z,57.41
2022-10-03T23:35:31.586Z,57.46
2022-10-03T23:38:02.405Z,57.79
2022-10-03T23:40:45.462Z,57.70
2022-10-03T23:43:58.775Z,58.35
2022-10-03T23:46:29.814Z,58.86
2022-10-03T23:49:01.013Z,58.79
2022-10-03T23:51:36.585Z,58.36
2022-10-03T23:54:07.832Z,58.66
2022-10-03T23:56:49.887Z,58.48
2022-10-03T23:59:24.060Z,58.77
